O'Neill, NE

11:41 AM CDT on March 23, 2017 (GMT -0500)
The O'Neill Municipal-Baker

Weather History for KONL - April, 2014

Change the Weather History Date:

Saturday, April 5, 2014

  Actual Average Record
Temperature  
Mean Temperature 47 °F -  
Max Temperature 64 °F 55 °F 85 °F (1991)
Min Temperature 30 °F 29 °F 13 °F (1968)
Degree Days  
Heating Degree Days 18    
Moisture  
Dew Point 26 °F    
Average Humidity 48    
Maximum Humidity 84    
Minimum Humidity 22    
Precipitation  
Precipitation 0.00 in - - ()
Sea Level Pressure  
Sea Level Pressure 29.91 in    
Wind  
Wind Speed 12 mph (South)    
Max Wind Speed 32 mph    
Max Gust Speed 40 mph    
Visibility 10 miles    
Events      
Averages and records for this station are not official NWS values.
T = Trace of Precipitation, MM = Missing Value Source: NWS Daily Summary

Daily Weather History Graph

Daily Weather History Graph

Search for Another Location

Airport or City:

Trip Planner

Search our weather history database for the weather conditions in past years. The results will help you decide how hot, cold, wet, or windy it might be!

Date:

Astronomy

Apr. 05, 2014 Rise Set
Actual Time 7:10 AM CDT 8:05 PM CDT
Civil Twilight 6:41 AM CDT 8:33 PM CDT
Nautical Twilight 6:07 AM CDT 9:08 PM CDT
Astronomical Twilight 5:32 AM CDT 9:43 PM CDT
Moon 11:14 AM CDT (4/5) 1:20 AM CDT (4/5)
Length of Visible Light 13h 52m
Length of Day
12h 55m
Waxing Crescent, 34% of the Moon is Illuminated
Apr 5
Waxing Crescent
Apr 7
First Quarter
Apr 15
Full
Apr 22
Last Quarter
Apr 29
New

Hourly Weather History & Observations

Time (CDT) Temp. Windchill Dew Point Humidity Pressure Visibility Wind Dir Wind Speed Gust Speed Precip Events Conditions
12:15 AM 31.1 °F 24.5 °F 24.8 °F 77% 30.04 in 10.0 mi South 6.9 mph - N/A   Clear
12:35 AM 32.0 °F 24.8 °F 25.9 °F 78% 30.02 in 10.0 mi SSE 8.1 mph - N/A   Clear
12:55 AM 31.8 °F 24.6 °F 26.1 °F 79% 30.03 in 10.0 mi South 8.1 mph - N/A   Clear
1:15 AM 31.5 °F 23.5 °F 26.2 °F 81% 30.03 in 10.0 mi SSE 9.2 mph - N/A   Clear
1:35 AM 31.1 °F 23.1 °F 26.1 °F 82% 30.02 in 10.0 mi South 9.2 mph - N/A   Clear
1:55 AM 31.1 °F 22.4 °F 26.1 °F 82% 30.02 in 10.0 mi SSE 10.4 mph - N/A   Clear
2:15 AM 31.3 °F 23.3 °F 26.2 °F 82% 30.02 in 10.0 mi South 9.2 mph - N/A   Clear
2:35 AM 30.7 °F 22.6 °F 26.1 °F 83% 30.02 in 10.0 mi South 9.2 mph - N/A   Clear
2:55 AM 30.2 °F 21.9 °F 25.9 °F 84% 30.01 in 10.0 mi SSE 9.2 mph - N/A   Clear
3:15 AM 30.9 °F 22.2 °F 26.4 °F 83% 30.01 in 10.0 mi South 10.4 mph - N/A   Clear
3:35 AM 32.0 °F 23.0 °F 27.3 °F 83% 30.00 in 10.0 mi South 11.5 mph - N/A   Clear
3:55 AM 32.0 °F 23.0 °F 27.3 °F 83% 30.00 in 10.0 mi South 11.5 mph - N/A   Clear
4:15 AM 32.0 °F 23.0 °F 27.5 °F 83% 29.99 in 10.0 mi SSE 11.5 mph - N/A   Scattered Clouds
4:35 AM 32.0 °F 23.0 °F 27.5 °F 83% 29.99 in 10.0 mi South 11.5 mph - N/A   Overcast
4:55 AM 32.5 °F 26.2 °F 28.0 °F 83% 30.00 in 10.0 mi South 6.9 mph - N/A   Overcast
5:15 AM 33.1 °F 25.5 °F 28.2 °F 82% 29.98 in 10.0 mi SSE 9.2 mph - N/A   Mostly Cloudy
5:35 AM 34.3 °F 28.4 °F 28.4 °F 79% 29.98 in 10.0 mi South 6.9 mph - N/A   Mostly Cloudy
5:55 AM 34.9 °F 27.7 °F 28.0 °F 76% 29.97 in 10.0 mi South 9.2 mph - N/A   Scattered Clouds
6:15 AM 34.7 °F 26.9 °F 27.9 °F 76% 29.98 in 10.0 mi South 10.4 mph - N/A   Mostly Cloudy
6:35 AM 35.6 °F 27.5 °F 27.7 °F 73% 29.97 in 10.0 mi South 11.5 mph - N/A   Overcast
6:55 AM 36.0 °F 28.0 °F 27.5 °F 71% 29.97 in 10.0 mi South 11.5 mph - N/A   Overcast
7:15 AM 36.3 °F 28.9 °F 27.3 °F 70% 29.97 in 10.0 mi SSE 10.4 mph - N/A   Overcast
7:35 AM 36.7 °F 28.9 °F 27.1 °F 68% 29.97 in 10.0 mi South 11.5 mph - N/A   Overcast
7:55 AM 37.0 °F 29.8 °F 27.1 °F 67% 29.98 in 10.0 mi South 10.4 mph - N/A   Overcast
8:15 AM 37.2 °F 30.6 °F 27.1 °F 67% 29.98 in 10.0 mi South 9.2 mph - N/A   Overcast
8:35 AM 38.3 °F 30.1 °F 27.3 °F 65% 29.97 in 10.0 mi South 13.8 mph - N/A   Mostly Cloudy
8:55 AM 40.1 °F 32.7 °F 27.5 °F 61% 29.97 in 10.0 mi SSE 12.7 mph - N/A   Scattered Clouds
9:15 AM 41.4 °F 34.3 °F 27.7 °F 58% 29.96 in 10.0 mi South 12.7 mph - N/A   Clear
9:35 AM 43.5 °F 35.5 °F 26.8 °F 52% 29.96 in 10.0 mi South 18.4 mph 28.8 mph N/A   Clear
9:55 AM 44.6 °F 36.9 °F 26.8 °F 50% 29.95 in 10.0 mi SSW 18.4 mph 25.3 mph N/A   Clear
10:15 AM 46.8 °F - 27.1 °F 46% 29.95 in 10.0 mi South 15.0 mph 24.2 mph N/A   Clear
10:35 AM 48.6 °F - 27.0 °F 43% 29.94 in 10.0 mi South 19.6 mph 25.3 mph N/A   Clear
10:55 AM 51.3 °F - 26.4 °F 38% 29.93 in 10.0 mi SSW 18.4 mph 27.6 mph N/A   Clear
11:15 AM 54.3 °F - 24.8 °F 32% 29.92 in 10.0 mi SSW 19.6 mph 32.2 mph N/A   Clear
11:35 AM 56.5 °F - 23.7 °F 28% 29.91 in 10.0 mi South 28.8 mph 36.8 mph N/A   Clear
11:55 AM 57.4 °F - 23.9 °F 28% 29.90 in 10.0 mi South 32.2 mph 40.3 mph N/A   Clear
12:15 PM 58.1 °F - 23.2 °F 26% 29.90 in 10.0 mi South 25.3 mph 38.0 mph N/A   Clear
12:35 PM 58.8 °F - 23.4 °F 26% 29.89 in 10.0 mi South 27.6 mph 33.4 mph N/A   Clear
12:55 PM 59.9 °F - 24.1 °F 25% 29.89 in 10.0 mi South 23.0 mph 29.9 mph N/A   Clear
1:15 PM 60.1 °F - 23.9 °F 25% 29.88 in 10.0 mi South 24.2 mph 32.2 mph N/A   Clear
1:35 PM 60.3 °F - 24.1 °F 25% 29.88 in 10.0 mi South 23.0 mph 33.4 mph N/A   Clear
1:55 PM 61.2 °F - 24.1 °F 24% 29.87 in 10.0 mi South 27.6 mph 34.5 mph N/A   Clear
2:15 PM 61.0 °F - 23.7 °F 24% 29.86 in 10.0 mi South 23.0 mph 28.8 mph N/A   Clear
2:35 PM 61.7 °F - 23.5 °F 23% 29.86 in 10.0 mi SSW 20.7 mph 29.9 mph N/A   Clear
2:55 PM 60.8 °F - 23.9 °F 24% 29.86 in 10.0 mi South 23.0 mph 28.8 mph N/A   Clear
3:15 PM 62.1 °F - 23.4 °F 23% 29.85 in 10.0 mi SSW 23.0 mph 31.1 mph N/A   Clear
3:35 PM 61.9 °F - 23.5 °F 23% 29.84 in 10.0 mi South 18.4 mph 25.3 mph N/A   Clear
3:55 PM 62.4 °F - 24.1 °F 23% 29.83 in 10.0 mi South 20.7 mph 28.8 mph N/A   Clear
4:15 PM 63.5 °F - 23.5 °F 22% 29.83 in 10.0 mi SSW 18.4 mph 28.8 mph N/A   Clear
4:35 PM 62.4 °F - 23.9 °F 23% 29.83 in 10.0 mi SSW 17.3 mph 24.2 mph N/A   Clear
4:55 PM 61.9 °F - 23.5 °F 23% 29.83 in 10.0 mi SSW 17.3 mph 24.2 mph N/A   Clear
5:15 PM 62.8 °F - 23.7 °F 23% 29.82 in 10.0 mi South 15.0 mph 23.0 mph N/A   Clear
5:35 PM 63.3 °F - 23.7 °F 22% 29.82 in 10.0 mi SSW 13.8 mph - N/A   Clear
5:55 PM 64.0 °F - 24.1 °F 22% 29.81 in 10.0 mi South 16.1 mph 19.6 mph N/A   Clear
6:15 PM 64.2 °F - 24.3 °F 22% 29.81 in 10.0 mi SW 11.5 mph 18.4 mph N/A   Clear
6:35 PM 63.9 °F - 25.0 °F 23% 29.82 in 10.0 mi SSW 6.9 mph - N/A   Clear
6:55 PM 64.4 °F - 25.3 °F 23% 29.82 in 10.0 mi SSW 9.2 mph - N/A   Clear
7:15 PM 63.1 °F - 24.6 °F 23% 29.81 in 10.0 mi SSW 8.1 mph - N/A   Clear
7:35 PM 61.0 °F - 25.7 °F 26% 29.81 in 10.0 mi SSW 4.6 mph - N/A   Clear
7:55 PM 59.2 °F - 26.1 °F 28% 29.81 in 10.0 mi SSW 4.6 mph - N/A   Scattered Clouds
8:15 PM 57.2 °F - 25.9 °F 30% 29.81 in 10.0 mi Calm Calm - N/A   Scattered Clouds
8:35 PM 54.3 °F - 27.9 °F 36% 29.82 in 10.0 mi SE 3.5 mph - N/A   Clear
8:55 PM 55.2 °F - 28.0 °F 35% 29.83 in 10.0 mi South 9.2 mph - N/A   Clear
9:15 PM 53.8 °F - 28.6 °F 38% 29.83 in 10.0 mi South 8.1 mph - N/A   Clear
9:35 PM 51.3 °F - 28.6 °F 42% 29.84 in 10.0 mi South 5.8 mph - N/A   Scattered Clouds
9:55 PM 51.8 °F - 28.9 °F 41% 29.84 in 10.0 mi South 6.9 mph - N/A   Mostly Cloudy
10:15 PM 50.9 °F - 28.6 °F 42% 29.85 in 10.0 mi Calm Calm - N/A   Mostly Cloudy
10:35 PM 51.8 °F - 27.7 °F 39% 29.85 in 10.0 mi South 9.2 mph - N/A   Mostly Cloudy
10:55 PM 49.6 °F - 27.7 °F 43% 29.85 in 10.0 mi South 4.6 mph - N/A   Scattered Clouds
11:15 PM 49.1 °F - 27.5 °F 43% 29.86 in 10.0 mi WSW 4.6 mph - N/A   Scattered Clouds
11:35 PM 52.2 °F - 26.1 °F 36% 29.86 in 10.0 mi West 6.9 mph 18.4 mph N/A   Mostly Cloudy
11:55 PM 50.9 °F - 26.6 °F 39% 29.86 in 10.0 mi WSW 4.6 mph - N/A   Scattered Clouds